createdAt,value
2018-05-13T00:00:42.704Z,22.73
2018-05-13T00:03:10.336Z,24.40
2018-05-13T00:05:38.020Z,22.27
2018-05-13T00:08:05.646Z,22.80
2018-05-13T00:10:33.988Z,25.70
2018-05-13T00:13:01.627Z,23.37
2018-05-13T00:15:29.243Z,22.67
2018-05-13T00:17:58.425Z,21.57
2018-05-13T00:20:26.027Z,21.47
2018-05-13T00:22:53.614Z,22.47
2018-05-13T00:25:21.405Z,23.27
2018-05-13T00:27:49.048Z,24.07
2018-05-13T00:30:16.653Z,21.30
2018-05-13T00:32:44.282Z,23.10
2018-05-13T00:35:12.227Z,22.93
2018-05-13T00:37:39.900Z,23.27
2018-05-13T00:40:07.560Z,26.00
2018-05-13T00:42:35.150Z,23.33
2018-05-13T00:45:02.891Z,21.60
2018-05-13T00:47:30.490Z,25.73
2018-05-13T00:49:58.069Z,23.93
2018-05-13T00:52:25.656Z,24.80
2018-05-13T00:54:55.204Z,24.30
2018-05-13T00:57:22.794Z,27.97
2018-05-13T00:59:51.159Z,22.57
2018-05-13T01:02:19.522Z,24.37
2018-05-13T01:04:47.261Z,24.27
2018-05-13T01:07:14.856Z,23.13
2018-05-13T01:09:42.429Z,24.67
2018-05-13T01:12:10.054Z,23.60
2018-05-13T01:14:37.653Z,21.40
2018-05-13T01:17:05.268Z,23.23
2018-05-13T01:19:32.880Z,21.37
2018-05-13T01:22:01.299Z,22.77
2018-05-13T01:24:29.005Z,25.10
2018-05-13T01:26:56.603Z,22.53
2018-05-13T01:29:24.275Z,22.77
2018-05-13T01:31:51.866Z,22.93
2018-05-13T01:34:19.533Z,25.83
2018-05-13T01:36:47.122Z,21.30
2018-05-13T01:39:14.738Z,24.53
2018-05-13T01:41:42.318Z,23.80
2018-05-13T01:44:09.923Z,22.37
2018-05-13T01:46:37.759Z,22.60
2018-05-13T01:49:05.413Z,21.17
2018-05-13T01:51:32.991Z,22.20
2018-05-13T01:54:00.580Z,22.93
2018-05-13T01:56:28.942Z,23.33
2018-05-13T01:58:56.554Z,24.10
2018-05-13T02:01:24.165Z,23.20
2018-05-13T02:03:51.831Z,24.33
2018-05-13T02:06:19.432Z,21.93
2018-05-13T02:08:47.189Z,20.73
2018-05-13T02:11:14.977Z,23.70
2018-05-13T02:13:42.546Z,25.37
2018-05-13T02:16:10.219Z,21.70
2018-05-13T02:18:38.454Z,23.20
2018-05-13T02:21:06.041Z,24.40
2018-05-13T02:23:33.661Z,22.57
2018-05-13T02:26:02.040Z,22.07
2018-05-13T02:28:30.416Z,21.33
2018-05-13T02:30:58.806Z,21.37
2018-05-13T02:33:27.214Z,21.40
2018-05-13T02:35:54.895Z,23.27
2018-05-13T02:38:22.686Z,23.20
2018-05-13T02:40:50.296Z,21.17
2018-05-13T02:43:17.884Z,20.77
2018-05-13T02:45:46.014Z,20.80
2018-05-13T02:48:14.378Z,23.40
2018-05-13T02:50:42.718Z,23.47
2018-05-13T02:53:10.440Z,24.00
2018-05-13T02:55:38.025Z,19.43
2018-05-13T02:58:05.608Z,21.90
2018-05-13T03:00:33.174Z,21.37
2018-05-13T03:03:00.753Z,20.67
2018-05-13T03:05:28.329Z,21.17
2018-05-13T03:07:55.893Z,22.13
2018-05-13T03:10:24.286Z,22.90
2018-05-13T03:12:52.775Z,23.23
2018-05-13T03:15:20.366Z,22.63
2018-05-13T03:17:47.943Z,22.07
2018-05-13T03:20:15.525Z,21.67
2018-05-13T03:22:43.316Z,21.80
2018-05-13T03:25:10.904Z,20.10
2018-05-13T03:27:38.477Z,22.13
2018-05-13T03:30:06.104Z,21.50
2018-05-13T03:32:34.642Z,23.20
2018-05-13T03:35:02.254Z,22.50
2018-05-13T03:37:29.963Z,22.47
2018-05-13T03:39:57.584Z,23.80
2018-05-13T03:42:25.190Z,25.07
2018-05-13T03:44:52.907Z,23.90
2018-05-13T03:47:20.803Z,23.63
2018-05-13T03:49:48.396Z,23.70
2018-05-13T03:52:16.013Z,24.73
2018-05-13T03:54:43.608Z,26.30
2018-05-13T03:57:11.201Z,27.97
2018-05-13T03:59:39.590Z,25.80
2018-05-13T04:02:07.994Z,26.47
2018-05-13T04:04:35.579Z,28.90
2018-05-13T04:07:03.212Z,26.50
2018-05-13T04:09:43.503Z,25.30
2018-05-13T04:12:22.855Z,23.73
2018-05-13T04:17:53.399Z,24.37
2018-05-13T04:20:21.013Z,27.07
2018-05-13T04:22:48.604Z,24.30
2018-05-13T04:25:16.550Z,23.70
2018-05-13T04:27:44.873Z,26.73
2018-05-13T04:30:12.515Z,23.87
2018-05-13T04:32:40.124Z,24.13
2018-05-13T04:35:07.731Z,24.77
2018-05-13T04:37:35.346Z,25.13
2018-05-13T04:40:03.729Z,27.80
2018-05-13T04:42:32.077Z,24.50
2018-05-13T04:44:59.652Z,25.60
2018-05-13T04:47:27.330Z,24.33
2018-05-13T04:49:55.702Z,26.03
2018-05-13T04:52:23.298Z,24.73
2018-05-13T04:54:50.913Z,24.13
2018-05-13T04:57:18.528Z,23.27
2018-05-13T04:59:46.127Z,24.57
2018-05-13T05:02:13.715Z,23.33
2018-05-13T05:04:41.316Z,24.67
2018-05-13T05:07:09.464Z,24.40
2018-05-13T05:09:37.794Z,25.17
2018-05-13T05:12:05.365Z,25.10
2018-05-13T05:14:32.965Z,23.47
2018-05-13T05:17:00.565Z,23.50
2018-05-13T05:19:28.155Z,23.47
2018-05-13T05:21:55.749Z,24.60
2018-05-13T05:24:24.137Z,22.97
2018-05-13T05:26:52.471Z,24.47
2018-05-13T05:29:20.044Z,23.30
2018-05-13T05:31:47.665Z,23.67
2018-05-13T05:34:15.277Z,21.87
2018-05-13T05:36:42.969Z,23.77
2018-05-13T05:39:11.437Z,23.23
2018-05-13T05:41:39.811Z,24.17
2018-05-13T05:44:07.408Z,25.63
2018-05-13T05:46:35.008Z,24.50
2018-05-13T05:49:02.607Z,25.00
2018-05-13T05:51:30.792Z,22.53
2018-05-13T05:53:58.391Z,24.70
2018-05-13T05:56:25.953Z,23.00
2018-05-13T05:58:53.546Z,24.03
2018-05-13T06:01:21.118Z,26.00
2018-05-13T06:03:48.716Z,22.17
2018-05-13T06:06:16.323Z,23.20
2018-05-13T06:08:43.911Z,23.23
2018-05-13T06:11:12.283Z,23.23
2018-05-13T06:13:40.658Z,23.57
2018-05-13T06:16:09.016Z,24.50
2018-05-13T06:18:36.588Z,22.60
2018-05-13T06:21:04.174Z,22.93
2018-05-13T06:23:31.751Z,21.50
2018-05-13T06:25:59.459Z,24.30
2018-05-13T06:28:27.062Z,22.37
2018-05-13T06:30:54.645Z,20.67
2018-05-13T06:33:22.262Z,23.43
2018-05-13T06:35:49.860Z,22.20
2018-05-13T06:38:17.690Z,22.03
2018-05-13T06:40:45.283Z,23.10
2018-05-13T06:43:12.877Z,20.00
2018-05-13T06:45:40.465Z,21.80
2018-05-13T06:48:08.092Z,22.43
2018-05-13T06:50:35.665Z,21.20
2018-05-13T06:53:03.694Z,20.77
2018-05-13T06:55:31.335Z,18.07
2018-05-13T06:57:58.926Z,20.50
2018-05-13T07:00:26.492Z,19.17
2018-05-13T07:02:54.680Z,20.50
2018-05-13T07:05:22.250Z,19.33
2018-05-13T07:07:49.943Z,18.73
2018-05-13T07:10:17.554Z,22.80
2018-05-13T07:12:45.141Z,20.70
2018-05-13T07:15:12.742Z,21.17
2018-05-13T07:17:40.352Z,20.30
2018-05-13T07:20:08.710Z,22.63
2018-05-13T07:22:36.316Z,21.83
2018-05-13T07:25:03.920Z,19.33
2018-05-13T07:27:31.522Z,21.00
2018-05-13T07:29:59.161Z,18.63
2018-05-13T07:32:26.723Z,17.42
2018-05-13T07:34:54.319Z,17.87
2018-05-13T07:37:21.904Z,16.55
2018-05-13T07:39:49.506Z,17.67
2018-05-13T07:42:17.098Z,15.73
2018-05-13T07:44:45.426Z,19.08
2018-05-13T07:47:13.787Z,17.08
2018-05-13T07:49:41.395Z,17.87
2018-05-13T07:52:08.993Z,19.42
2018-05-13T07:54:36.580Z,15.93
2018-05-13T07:57:04.214Z,16.27
2018-05-13T07:59:31.928Z,18.10
2018-05-13T08:02:00.408Z,19.87
2018-05-13T08:04:28.015Z,20.67
2018-05-13T08:06:55.733Z,17.65
2018-05-13T08:09:24.074Z,16.92
2018-05-13T08:11:51.671Z,17.60
2018-05-13T08:14:20.016Z,18.45
2018-05-13T08:16:47.598Z,17.98
2018-05-13T08:19:15.184Z,20.25
2018-05-13T08:21:42.762Z,19.95
2018-05-13T08:24:10.355Z,21.98
2018-05-13T08:26:37.948Z,17.27
2018-05-13T08:29:05.544Z,18.60
2018-05-13T08:31:33.141Z,20.67
2018-05-13T08:34:00.726Z,19.87
2018-05-13T08:36:28.314Z,20.67
2018-05-13T08:38:55.909Z,18.50
2018-05-13T08:41:23.501Z,19.50
2018-05-13T08:43:51.093Z,16.50
2018-05-13T08:46:19.438Z,18.80
2018-05-13T08:48:47.032Z,18.02
2018-05-13T08:51:15.394Z,16.65
2018-05-13T08:53:42.988Z,18.70
2018-05-13T08:56:10.595Z,16.10
2018-05-13T08:58:38.195Z,16.20
2018-05-13T09:01:06.558Z,18.62
2018-05-13T09:03:35.560Z,17.27
2018-05-13T09:06:03.963Z,17.08
2018-05-13T09:08:31.570Z,17.95
2018-05-13T09:10:59.184Z,16.98
2018-05-13T09:13:26.773Z,15.52
2018-05-13T09:15:54.332Z,13.75
2018-05-13T09:18:21.925Z,14.38
2018-05-13T09:20:49.549Z,13.30
2018-05-13T09:23:17.149Z,14.45
2018-05-13T09:25:44.712Z,13.40
2018-05-13T09:28:12.313Z,12.20
2018-05-13T09:30:39.903Z,14.02
2018-05-13T09:33:07.562Z,14.00
2018-05-13T09:35:35.078Z,13.90
2018-05-13T09:38:02.647Z,13.38
2018-05-13T09:40:30.293Z,14.15
2018-05-13T09:42:57.880Z,16.00
2018-05-13T09:45:25.535Z,15.07
2018-05-13T09:47:53.916Z,12.93
2018-05-13T09:50:21.505Z,14.43
2018-05-13T09:52:49.096Z,14.43
2018-05-13T09:55:16.700Z,13.93
2018-05-13T09:57:44.548Z,15.15
2018-05-13T10:00:12.156Z,13.85
2018-05-13T10:02:39.738Z,13.00
2018-05-13T10:05:07.340Z,12.52
2018-05-13T10:07:35.071Z,12.25
2018-05-13T10:10:02.684Z,12.65
2018-05-13T10:12:30.253Z,13.90
2018-05-13T10:14:57.850Z,14.80
2018-05-13T10:17:25.436Z,11.98
2018-05-13T10:19:53.037Z,13.48
2018-05-13T10:22:21.903Z,12.85
2018-05-13T10:24:50.266Z,11.65
2018-05-13T10:27:18.001Z,10.57
2018-05-13T10:29:45.745Z,11.63
2018-05-13T10:32:13.337Z,15.18
2018-05-13T10:34:40.934Z,14.52
2018-05-13T10:37:08.532Z,14.75
2018-05-13T10:39:36.122Z,14.20
2018-05-13T10:42:03.713Z,14.77
2018-05-13T10:44:32.100Z,15.88
2018-05-13T10:47:00.470Z,16.15
2018-05-13T10:49:28.086Z,17.37
2018-05-13T10:51:56.245Z,14.70
2018-05-13T10:54:23.807Z,14.15
2018-05-13T10:56:51.514Z,12.37
2018-05-13T10:59:19.104Z,19.70
2018-05-13T11:01:46.671Z,16.25
2018-05-13T11:04:14.289Z,19.10
2018-05-13T11:06:41.894Z,20.20
2018-05-13T11:09:09.623Z,18.02
2018-05-13T11:11:37.238Z,16.58
2018-05-13T11:14:04.847Z,14.55
2018-05-13T11:16:32.434Z,16.52
2018-05-13T11:19:00.809Z,15.40
2018-05-13T11:21:28.402Z,15.85
2018-05-13T11:23:55.987Z,13.40
2018-05-13T11:26:23.586Z,12.98
2018-05-13T11:28:51.168Z,12.30
2018-05-13T11:31:18.757Z,9.90
2018-05-13T11:33:46.569Z,9.93
2018-05-13T11:36:14.102Z,11.23
2018-05-13T11:38:41.683Z,10.68
2018-05-13T11:41:09.275Z,10.50
2018-05-13T11:43:36.860Z,10.60
2018-05-13T11:46:04.476Z,8.88
2018-05-13T11:48:32.132Z,10.95
2018-05-13T11:50:59.714Z,11.20
2018-05-13T11:53:27.291Z,9.18
2018-05-13T11:55:54.920Z,9.88
2018-05-13T11:58:22.490Z,9.20
2018-05-13T12:00:50.391Z,9.18
2018-05-13T12:03:18.025Z,8.93
2018-05-13T12:05:45.638Z,8.60
2018-05-13T12:08:13.303Z,14.85
2018-05-13T12:10:41.079Z,10.10
2018-05-13T12:13:08.697Z,9.15
2018-05-13T12:15:36.322Z,11.02
2018-05-13T12:18:05.819Z,9.80
2018-05-13T12:20:33.410Z,10.13
2018-05-13T12:23:01.006Z,9.18
2018-05-13T12:25:28.613Z,11.00
2018-05-13T12:27:56.378Z,11.25
2018-05-13T12:30:24.007Z,11.43
2018-05-13T12:32:51.592Z,10.63
2018-05-13T12:35:19.259Z,11.12
2018-05-13T12:37:46.917Z,10.27
2018-05-13T12:40:14.516Z,10.93
2018-05-13T12:42:42.872Z,10.70
2018-05-13T12:45:10.470Z,9.75
2018-05-13T12:47:38.826Z,9.73
2018-05-13T12:50:06.547Z,10.25
2018-05-13T12:52:34.082Z,9.38
2018-05-13T12:55:01.669Z,10.88
2018-05-13T12:57:29.272Z,10.07
2018-05-13T12:59:56.851Z,9.43
2018-05-13T13:02:24.507Z,8.80
2018-05-13T13:04:52.105Z,7.97
2018-05-13T13:07:19.660Z,9.35
2018-05-13T13:09:47.245Z,10.32
2018-05-13T13:12:14.854Z,13.23
2018-05-13T13:14:43.218Z,11.57
2018-05-13T13:17:10.862Z,9.40
2018-05-13T13:19:38.434Z,11.50
2018-05-13T13:22:06.037Z,10.98
2018-05-13T13:24:33.653Z,12.40
2018-05-13T13:27:01.250Z,11.18
2018-05-13T13:29:29.592Z,10.50
2018-05-13T13:31:57.178Z,11.63
2018-05-13T13:34:24.789Z,11.05
2018-05-13T13:36:52.389Z,13.13
2018-05-13T13:39:20.021Z,11.98
2018-05-13T13:41:47.609Z,10.77
2018-05-13T13:44:15.260Z,11.40
2018-05-13T13:46:43.377Z,12.60
2018-05-13T13:49:11.911Z,11.90
2018-05-13T13:51:39.544Z,11.85
2018-05-13T13:54:07.150Z,12.30
2018-05-13T13:56:34.736Z,11.70
2018-05-13T13:59:03.098Z,11.60
2018-05-13T14:01:30.678Z,11.93
2018-05-13T14:03:58.282Z,13.70
2018-05-13T14:06:25.920Z,11.10
2018-05-13T14:08:53.532Z,12.50
2018-05-13T14:11:21.120Z,11.23
2018-05-13T14:13:48.713Z,11.45
2018-05-13T14:16:16.356Z,11.57
2018-05-13T14:18:43.922Z,11.65
2018-05-13T14:21:11.522Z,10.38
2018-05-13T14:23:39.085Z,11.55
2018-05-13T14:26:06.685Z,11.68
2018-05-13T14:28:35.037Z,10.20
2018-05-13T14:31:02.620Z,10.60
2018-05-13T14:33:30.209Z,10.65
2018-05-13T14:35:58.557Z,10.13
2018-05-13T14:38:26.180Z,10.40
2018-05-13T14:40:53.875Z,11.50
2018-05-13T14:43:21.409Z,11.52
2018-05-13T14:45:48.994Z,10.32
2018-05-13T14:48:16.641Z,9.63
2018-05-13T14:50:44.234Z,8.45
2018-05-13T14:53:11.859Z,7.97
2018-05-13T14:55:39.422Z,10.40
2018-05-13T14:58:07.000Z,8.32
2018-05-13T15:00:34.612Z,11.43
2018-05-13T15:03:02.216Z,8.93
2018-05-13T15:05:29.825Z,9.23
2018-05-13T15:07:57.468Z,11.20
2018-05-13T15:10:25.100Z,13.73
2018-05-13T15:12:52.732Z,14.40
2018-05-13T15:15:20.310Z,15.50
2018-05-13T15:17:47.914Z,14.57
2018-05-13T15:20:15.499Z,15.63
2018-05-13T15:22:43.106Z,15.93
2018-05-13T15:25:11.023Z,15.43
2018-05-13T15:27:38.705Z,14.47
2018-05-13T15:30:06.267Z,15.97
2018-05-13T15:32:33.871Z,13.57
2018-05-13T15:35:01.480Z,13.77
2018-05-13T15:37:29.049Z,15.17
2018-05-13T15:39:57.724Z,12.73
2018-05-13T15:42:25.380Z,12.47
2018-05-13T15:44:52.955Z,11.03
2018-05-13T15:47:20.540Z,10.77
2018-05-13T15:49:48.254Z,11.23
2018-05-13T15:52:16.647Z,13.67
2018-05-13T15:54:44.986Z,16.53
2018-05-13T15:57:12.722Z,17.83
2018-05-13T15:59:40.317Z,17.70
2018-05-13T16:02:08.027Z,17.70
2018-05-13T16:04:35.715Z,17.07
2018-05-13T16:07:03.334Z,15.17
2018-05-13T16:09:30.925Z,26.43
2018-05-13T16:11:58.525Z,18.03
2018-05-13T16:14:26.111Z,17.00
2018-05-13T16:16:53.705Z,19.57
2018-05-13T16:19:21.293Z,16.23
2018-05-13T16:21:48.897Z,16.20
2018-05-13T16:24:17.282Z,16.67
2018-05-13T16:26:45.758Z,20.00
2018-05-13T16:29:13.380Z,21.13
2018-05-13T16:31:40.992Z,21.60
2018-05-13T16:34:08.575Z,25.60
2018-05-13T16:36:36.171Z,28.67
2018-05-13T16:39:03.801Z,33.17
2018-05-13T16:41:31.793Z,29.33
2018-05-13T16:44:00.074Z,26.93
2018-05-13T16:46:27.782Z,30.77
2018-05-13T16:48:55.541Z,30.87
2018-05-13T16:51:23.105Z,26.93
2018-05-13T16:53:51.982Z,27.00
2018-05-13T16:56:19.565Z,28.77
2018-05-13T16:58:47.154Z,33.87
2018-05-13T17:01:14.797Z,33.07
2018-05-13T17:03:42.369Z,28.80
2018-05-13T17:06:09.971Z,32.40
2018-05-13T17:08:37.557Z,27.47
2018-05-13T17:11:05.177Z,26.43
2018-05-13T17:13:32.761Z,29.70
2018-05-13T17:16:00.341Z,23.70
2018-05-13T17:18:27.925Z,26.53
2018-05-13T17:20:55.575Z,21.30
2018-05-13T17:23:23.163Z,21.60
2018-05-13T17:25:50.758Z,18.93
2018-05-13T17:28:19.134Z,19.10
2018-05-13T17:30:47.745Z,17.80
2018-05-13T17:33:15.369Z,18.27
2018-05-13T17:35:42.965Z,17.13
2018-05-13T17:38:10.614Z,18.40
2018-05-13T17:40:38.202Z,19.40
2018-05-13T17:43:05.780Z,18.77
2018-05-13T17:45:34.140Z,18.90
2018-05-13T17:48:01.761Z,21.57
2018-05-13T17:50:29.362Z,16.67
2018-05-13T17:52:56.973Z,16.67
2018-05-13T17:55:24.560Z,15.07
2018-05-13T17:57:52.201Z,15.47
2018-05-13T18:00:19.771Z,14.57
2018-05-13T18:02:47.365Z,13.70
2018-05-13T18:05:14.947Z,11.53
2018-05-13T18:07:42.538Z,14.17
2018-05-13T18:12:43.944Z,13.90
2018-05-13T18:15:11.557Z,14.50
2018-05-13T18:17:39.212Z,19.50
2018-05-13T18:20:06.833Z,29.07
2018-05-13T18:22:34.441Z,38.73
2018-05-13T18:25:02.030Z,38.40
2018-05-13T18:27:29.648Z,40.03
2018-05-13T18:29:57.254Z,46.07
2018-05-13T18:32:24.846Z,42.03
2018-05-13T18:34:52.513Z,37.53
2018-05-13T18:37:20.106Z,44.20
2018-05-13T18:39:47.693Z,46.93
2018-05-13T18:42:15.277Z,52.23
2018-05-13T18:44:42.904Z,51.47
2018-05-13T18:47:11.651Z,53.50
2018-05-13T18:49:39.251Z,55.80
2018-05-13T18:52:06.869Z,52.60
2018-05-13T18:54:34.489Z,58.83
2018-05-13T18:57:02.198Z,49.40
2018-05-13T18:59:29.809Z,55.57
2018-05-13T19:01:57.429Z,50.67
2018-05-13T19:04:25.051Z,56.10
2018-05-13T19:06:52.650Z,49.57
2018-05-13T19:09:20.232Z,53.67
2018-05-13T19:11:47.847Z,52.80
2018-05-13T19:14:15.444Z,62.90
2018-05-13T19:16:43.039Z,61.30
2018-05-13T19:19:10.635Z,73.03
2018-05-13T19:21:38.237Z,81.33
2018-05-13T19:24:06.650Z,82.50
2018-05-13T19:26:34.253Z,87.13
2018-05-13T19:29:01.841Z,80.43
2018-05-13T19:31:30.193Z,89.87
2018-05-13T19:33:57.808Z,88.30
2018-05-13T19:38:59.317Z,89.83
2018-05-13T19:41:26.906Z,90.27
2018-05-13T19:43:54.514Z,85.87
2018-05-13T19:46:22.109Z,77.33
2018-05-13T19:48:49.701Z,75.27
2018-05-13T19:51:17.285Z,76.07
2018-05-13T19:53:44.846Z,79.63
2018-05-13T19:56:12.439Z,73.50
2018-05-13T19:58:40.246Z,74.23
2018-05-13T20:01:08.690Z,70.40
2018-05-13T20:03:36.392Z,65.60
2018-05-13T20:06:03.953Z,70.67
2018-05-13T20:08:31.566Z,60.93
2018-05-13T20:10:59.159Z,61.20
2018-05-13T20:13:26.760Z,57.53
2018-05-13T20:15:54.373Z,57.13
2018-05-13T20:18:22.007Z,54.70
2018-05-13T20:20:49.582Z,59.73
2018-05-13T20:23:24.991Z,58.67
2018-05-13T20:25:52.625Z,60.67
2018-05-13T20:28:21.419Z,61.80
2018-05-13T20:30:48.995Z,62.60
2018-05-13T20:33:16.589Z,59.40
2018-05-13T20:35:44.945Z,61.37
2018-05-13T20:38:12.529Z,63.17
2018-05-13T20:40:40.130Z,62.07
2018-05-13T20:45:41.553Z,61.37
2018-05-13T20:48:09.169Z,62.33
2018-05-13T20:50:39.748Z,59.80
2018-05-13T20:53:07.353Z,64.17
2018-05-13T20:55:34.977Z,58.90
2018-05-13T20:58:02.710Z,56.63
2018-05-13T21:00:30.405Z,56.63
2018-05-13T21:02:57.986Z,52.77
2018-05-13T21:05:25.615Z,52.63
2018-05-13T21:07:53.258Z,47.50
2018-05-13T21:10:20.854Z,51.50
2018-05-13T21:12:48.453Z,47.73
2018-05-13T21:15:16.039Z,55.67
2018-05-13T21:17:44.387Z,51.30
2018-05-13T21:20:11.973Z,54.30
2018-05-13T21:22:39.545Z,57.57
2018-05-13T21:25:07.179Z,53.37
2018-05-13T21:27:34.745Z,49.50
2018-05-13T21:30:02.336Z,52.93
2018-05-13T21:32:30.712Z,44.77
2018-05-13T21:34:59.079Z,43.20
2018-05-13T21:37:27.437Z,47.00
2018-05-13T21:39:55.024Z,45.03
2018-05-13T21:42:22.596Z,45.03
2018-05-13T21:44:50.194Z,40.47
2018-05-13T21:47:17.884Z,38.60
2018-05-13T21:49:45.501Z,40.53
2018-05-13T21:52:13.069Z,39.57
2018-05-13T21:54:40.718Z,38.60
2018-05-13T21:57:08.308Z,34.40
2018-05-13T21:59:35.897Z,34.70
2018-05-13T22:02:03.505Z,34.57
2018-05-13T22:04:31.093Z,33.47
2018-05-13T22:06:58.724Z,36.20
2018-05-13T22:09:26.322Z,37.33
2018-05-13T22:11:53.911Z,34.83
2018-05-13T22:14:21.519Z,34.17
2018-05-13T22:16:49.220Z,30.83
2018-05-13T22:19:16.825Z,41.77
2018-05-13T22:21:44.403Z,40.73
2018-05-13T22:24:12.036Z,44.47
2018-05-13T22:26:39.653Z,50.13
2018-05-13T22:29:07.427Z,41.90
2018-05-13T22:31:34.999Z,53.90
2018-05-13T22:34:02.566Z,51.50
2018-05-13T22:36:30.199Z,52.30
2018-05-13T22:38:57.758Z,44.63
2018-05-13T22:41:25.336Z,40.37
2018-05-13T22:43:52.925Z,36.97
2018-05-13T22:46:20.512Z,33.07
2018-05-13T22:48:48.157Z,32.83
2018-05-13T22:51:15.743Z,36.50
2018-05-13T22:53:43.341Z,31.80
2018-05-13T22:56:10.920Z,26.90
2018-05-13T22:58:38.506Z,25.97
2018-05-13T23:01:07.008Z,23.87
2018-05-13T23:03:34.589Z,25.07
2018-05-13T23:06:02.177Z,26.13
2018-05-13T23:08:29.851Z,24.27
2018-05-13T23:10:57.438Z,22.63
2018-05-13T23:13:25.046Z,26.23
2018-05-13T23:15:52.630Z,23.97
2018-05-13T23:18:20.211Z,23.30
2018-05-13T23:20:48.567Z,22.77
2018-05-13T23:23:16.161Z,25.13
2018-05-13T23:25:44.512Z,21.43
2018-05-13T23:28:12.110Z,22.87
2018-05-13T23:30:40.222Z,24.07
2018-05-13T23:33:07.822Z,19.10
2018-05-13T23:35:35.413Z,19.13
2018-05-13T23:38:03.045Z,21.40
2018-05-13T23:40:30.628Z,21.07
2018-05-13T23:42:58.228Z,20.13
2018-05-13T23:45:25.809Z,20.70
2018-05-13T23:47:53.396Z,19.93
2018-05-13T23:50:21.007Z,19.70
2018-05-13T23:52:48.658Z,19.07
2018-05-13T23:55:16.249Z,22.13
2018-05-13T23:57:43.828Z,23.83
